Home   Weather   Netherlands   Leiden   Past weeks
Flag for Netherlands

Past Weather in Leiden, Netherlands — Yesterday and Last 2 Weeks

Currently: 68 °F. Mostly cloudy. (Weather station: Rotterdam Zestienhoven Airport, Netherlands). See more current weather

Past Weather in Leiden — Graph

°F

Leiden Temperature Yesterday

Maximum temperature yesterday: 68 °F (at 11:55 am)
Minimum temperature yesterday: 55 °F (at 4:55 am)
Average temperature yesterday: 62 °F

High & Low Weather Summary for the Past Weeks

 TemperatureHumidityPressure
High86 °F (Jun 23, 5:55 pm)100% (Jun 22, 3:25 am)30.30 "Hg (Jun 22, 3:25 am)
Low48 °F (Jun 22, 5:25 am)26% (Jun 22, 4:55 pm)29.68 "Hg (Jun 24, 5:55 pm)
Average65 °F71%29.99 "Hg
* Reported Jun 21 3:25 pm — Jul 6 3:55 pm, Leiden. Weather by CustomWeather, © 2022

Note: Actual official high and low records may vary slightly from our data, if they occured in-between our weather recording intervals... More about our weather records

Leiden Weather History for the Previous 24 Hours

Scroll right to see more
 ConditionsComfort  
Time TempWeatherWind HumidityBarometerVisibility
3:55 pm
Wed, Jul 6
68 °FPartly sunny.12 mph56%30.27 "HgN/A
3:25 pm68 °FOvercast.12 mph53%30.27 "HgN/A
2:55 pm68 °FClear.12 mph49%30.27 "HgN/A
1:55 pm68 °FClear.8 mph46%30.27 "HgN/A
12:55 pm68 °FClear.7 mph43%30.30 "HgN/A
12:25 pm68 °FClear.6 mph49%30.30 "HgN/A
11:55 am66 °FClear.7 mph46%30.30 "HgN/A
10:55 am64 °FClear.5 mph49%30.30 "HgN/A
10:25 am66 °FClear.3 mph43%30.30 "HgN/A
9:55 am64 °FClear.5 mph46%30.30 "HgN/A
9:25 am64 °FClear.5 mph56%30.30 "HgN/A
8:55 am63 °FClear.5 mph59%30.30 "HgN/A
8:25 am63 °FClear.5 mph59%30.30 "HgN/A
7:55 am59 °FClear.5 mph77%30.30 "HgN/A
6:55 am54 °FClear.6 mph88%30.30 "HgN/A
6:25 am52 °FClear.5 mph88%30.27 "HgN/A
5:55 am50 °FClear.2 mph94%30.30 "HgN/A
5:25 am50 °FClear.3 mph94%30.30 "HgN/A
4:55 am50 °FClear.2 mph94%30.30 "HgN/A
4:25 am50 °FClear.3 mph94%30.30 "HgN/A
3:55 am48 °FCool.5 mph94%30.30 "HgN/A
3:25 am52 °FClear.5 mph88%30.30 "HgN/A
2:55 am52 °FCool.6 mph88%30.30 "HgN/A
1:25 am52 °FCool.5 mph88%30.30 "HgN/A
12:55 am54 °FClear.3 mph82%30.30 "HgN/A
11:55 pm
Tue, Jul 5
55 °FClear.3 mph77%30.30 "HgN/A
10:55 pm55 °FCool.2 mph77%30.27 "HgN/A
9:55 pm57 °FPassing clouds.3 mph72%30.27 "HgN/A
9:25 pm61 °FPassing clouds.8 mph63%30.27 "HgN/A
8:55 pm63 °FClear.9 mph59%30.27 "HgN/A
8:25 pm63 °FClear.9 mph56%30.24 "HgN/A
7:55 pm63 °FClear.8 mph59%30.24 "HgN/A
6:55 pm64 °FMild.10 mph56%30.24 "HgN/A
6:25 pm64 °FScattered clouds.13 mph60%30.24 "HgN/A
5:55 pm66 °FPartly sunny.10 mph60%30.24 "HgN/A
5:25 pm66 °FPartly sunny.12 mph56%30.24 "HgN/A
Weather by CustomWeather, © 2022

See weather overview